sensor_id;sensor_type;location;lat;lon;timestamp;P1;durP1;ratioP1;P2;durP2;ratioP2
22040;SDS011;11184;52.444;13.578;2022-07-12T00:01:10;5.40;;;2.60;;
22040;SDS011;11184;52.444;13.578;2022-07-12T00:03:55;6.20;;;2.83;;
22040;SDS011;11184;52.444;13.578;2022-07-12T00:06:40;4.80;;;2.88;;
22040;SDS011;11184;52.444;13.578;2022-07-12T00:09:24;3.35;;;2.45;;
22040;SDS011;11184;52.444;13.578;2022-07-12T00:12:09;9.88;;;3.42;;
22040;SDS011;11184;52.444;13.578;2022-07-12T00:14:54;7.32;;;2.92;;
22040;SDS011;11184;52.444;13.578;2022-07-12T00:17:39;12.57;;;4.90;;
22040;SDS011;11184;52.444;13.578;2022-07-12T00:20:23;7.72;;;4.38;;
22040;SDS011;11184;52.444;13.578;2022-07-12T00:23:08;15.20;;;4.13;;
22040;SDS011;11184;52.444;13.578;2022-07-12T00:25:52;11.98;;;3.63;;
22040;SDS011;11184;52.444;13.578;2022-07-12T00:28:37;5.82;;;2.25;;
22040;SDS011;11184;52.444;13.578;2022-07-12T00:31:22;5.90;;;3.17;;
22040;SDS011;11184;52.444;13.578;2022-07-12T00:34:06;5.88;;;3.15;;
22040;SDS011;11184;52.444;13.578;2022-07-12T00:36:51;8.10;;;3.70;;
22040;SDS011;11184;52.444;13.578;2022-07-12T00:39:36;5.28;;;2.38;;
22040;SDS011;11184;52.444;13.578;2022-07-12T00:42:20;4.53;;;2.70;;
22040;SDS011;11184;52.444;13.578;2022-07-12T00:45:05;4.95;;;2.33;;
22040;SDS011;11184;52.444;13.578;2022-07-12T00:47:50;7.03;;;3.22;;
22040;SDS011;11184;52.444;13.578;2022-07-12T00:50:36;3.17;;;2.38;;
22040;SDS011;11184;52.444;13.578;2022-07-12T00:53:21;5.72;;;3.42;;
22040;SDS011;11184;52.444;13.578;2022-07-12T00:56:07;4.75;;;2.40;;
22040;SDS011;11184;52.444;13.578;2022-07-12T00:58:52;5.15;;;2.83;;
22040;SDS011;11184;52.444;13.578;2022-07-12T01:01:37;4.63;;;2.53;;
22040;SDS011;11184;52.444;13.578;2022-07-12T01:04:22;12.43;;;3.10;;
22040;SDS011;11184;52.444;13.578;2022-07-12T01:07:09;3.17;;;2.08;;
22040;SDS011;11184;52.444;13.578;2022-07-12T01:09:54;4.00;;;2.28;;
22040;SDS011;11184;52.444;13.578;2022-07-12T01:12:39;6.45;;;2.95;;
22040;SDS011;11184;52.444;13.578;2022-07-12T01:15:24;4.95;;;3.00;;
22040;SDS011;11184;52.444;13.578;2022-07-12T01:18:10;6.68;;;2.92;;
22040;SDS011;11184;52.444;13.578;2022-07-12T01:20:55;6.07;;;2.83;;
22040;SDS011;11184;52.444;13.578;2022-07-12T01:23:40;3.42;;;3.13;;
22040;SDS011;11184;52.444;13.578;2022-07-12T01:26:25;6.05;;;3.30;;
22040;SDS011;11184;52.444;13.578;2022-07-12T01:29:11;3.55;;;1.90;;
22040;SDS011;11184;52.444;13.578;2022-07-12T01:31:56;4.75;;;2.83;;
22040;SDS011;11184;52.444;13.578;2022-07-12T01:35:02;8.27;;;3.03;;
22040;SDS011;11184;52.444;13.578;2022-07-12T01:37:47;3.35;;;2.45;;
22040;SDS011;11184;52.444;13.578;2022-07-12T01:40:33;4.70;;;2.70;;
22040;SDS011;11184;52.444;13.578;2022-07-12T01:43:19;5.18;;;2.45;;
22040;SDS011;11184;52.444;13.578;2022-07-12T01:46:04;3.42;;;2.22;;
22040;SDS011;11184;52.444;13.578;2022-07-12T01:48:49;1.85;;;1.35;;
22040;SDS011;11184;52.444;13.578;2022-07-12T01:51:34;2.97;;;2.15;;
22040;SDS011;11184;52.444;13.578;2022-07-12T01:54:19;2.50;;;1.70;;
22040;SDS011;11184;52.444;13.578;2022-07-12T01:57:04;2.58;;;2.38;;
22040;SDS011;11184;52.444;13.578;2022-07-12T01:59:49;2.15;;;1.67;;
22040;SDS011;11184;52.444;13.578;2022-07-12T02:02:35;4.95;;;3.28;;
22040;SDS011;11184;52.444;13.578;2022-07-12T02:05:21;4.47;;;2.35;;
22040;SDS011;11184;52.444;13.578;2022-07-12T02:08:06;8.85;;;2.53;;
22040;SDS011;11184;52.444;13.578;2022-07-12T02:10:50;4.88;;;1.92;;
22040;SDS011;11184;52.444;13.578;2022-07-12T02:13:35;2.92;;;2.10;;
22040;SDS011;11184;52.444;13.578;2022-07-12T02:16:20;7.70;;;2.50;;
22040;SDS011;11184;52.444;13.578;2022-07-12T02:19:05;2.15;;;1.60;;
22040;SDS011;11184;52.444;13.578;2022-07-12T02:21:49;4.85;;;2.75;;
22040;SDS011;11184;52.444;13.578;2022-07-12T02:24:34;4.95;;;2.38;;
22040;SDS011;11184;52.444;13.578;2022-07-12T02:27:19;3.53;;;2.78;;
22040;SDS011;11184;52.444;13.578;2022-07-12T02:30:04;6.25;;;2.75;;
22040;SDS011;11184;52.444;13.578;2022-07-12T02:32:49;5.18;;;3.10;;
22040;SDS011;11184;52.444;13.578;2022-07-12T02:35:33;6.55;;;2.90;;
22040;SDS011;11184;52.444;13.578;2022-07-12T02:38:18;4.93;;;3.45;;
22040;SDS011;11184;52.444;13.578;2022-07-12T02:41:04;8.07;;;2.78;;
22040;SDS011;11184;52.444;13.578;2022-07-12T02:43:49;6.50;;;4.07;;
22040;SDS011;11184;52.444;13.578;2022-07-12T02:46:34;3.60;;;2.60;;
22040;SDS011;11184;52.444;13.578;2022-07-12T02:49:18;5.95;;;2.90;;
22040;SDS011;11184;52.444;13.578;2022-07-12T02:52:03;2.97;;;2.40;;
22040;SDS011;11184;52.444;13.578;2022-07-12T02:54:48;5.57;;;2.40;;
22040;SDS011;11184;52.444;13.578;2022-07-12T02:57:32;3.28;;;2.92;;
22040;SDS011;11184;52.444;13.578;2022-07-12T03:00:17;5.07;;;2.85;;
22040;SDS011;11184;52.444;13.578;2022-07-12T03:03:01;6.28;;;3.15;;
22040;SDS011;11184;52.444;13.578;2022-07-12T03:05:46;5.70;;;3.30;;
22040;SDS011;11184;52.444;13.578;2022-07-12T03:08:31;6.70;;;4.75;;
22040;SDS011;11184;52.444;13.578;2022-07-12T03:11:16;7.45;;;3.85;;
22040;SDS011;11184;52.444;13.578;2022-07-12T03:14:00;7.18;;;2.92;;
22040;SDS011;11184;52.444;13.578;2022-07-12T03:16:45;5.05;;;2.78;;
22040;SDS011;11184;52.444;13.578;2022-07-12T03:19:29;7.55;;;2.47;;
22040;SDS011;11184;52.444;13.578;2022-07-12T03:22:14;6.10;;;3.25;;
22040;SDS011;11184;52.444;13.578;2022-07-12T03:24:58;6.68;;;2.70;;
22040;SDS011;11184;52.444;13.578;2022-07-12T03:27:43;4.80;;;3.03;;
22040;SDS011;11184;52.444;13.578;2022-07-12T03:30:28;4.88;;;2.72;;
22040;SDS011;11184;52.444;13.578;2022-07-12T03:33:13;7.10;;;3.15;;
22040;SDS011;11184;52.444;13.578;2022-07-12T03:35:58;7.97;;;2.83;;
22040;SDS011;11184;52.444;13.578;2022-07-12T03:38:43;8.43;;;2.47;;
22040;SDS011;11184;52.444;13.578;2022-07-12T03:41:27;4.82;;;1.70;;
22040;SDS011;11184;52.444;13.578;2022-07-12T03:44:12;2.58;;;2.20;;
22040;SDS011;11184;52.444;13.578;2022-07-12T03:46:56;10.98;;;2.33;;
22040;SDS011;11184;52.444;13.578;2022-07-12T03:49:41;3.15;;;1.48;;
22040;SDS011;11184;52.444;13.578;2022-07-12T03:52:26;5.80;;;2.10;;
22040;SDS011;11184;52.444;13.578;2022-07-12T03:55:11;2.95;;;1.85;;
22040;SDS011;11184;52.444;13.578;2022-07-12T03:57:57;5.70;;;2.03;;
22040;SDS011;11184;52.444;13.578;2022-07-12T04:00:42;2.78;;;1.98;;
22040;SDS011;11184;52.444;13.578;2022-07-12T04:03:26;2.97;;;1.33;;
22040;SDS011;11184;52.444;13.578;2022-07-12T04:06:11;6.20;;;2.33;;
22040;SDS011;11184;52.444;13.578;2022-07-12T04:08:56;4.80;;;1.83;;
22040;SDS011;11184;52.444;13.578;2022-07-12T04:11:40;4.88;;;1.92;;
22040;SDS011;11184;52.444;13.578;2022-07-12T04:14:25;7.68;;;1.58;;
22040;SDS011;11184;52.444;13.578;2022-07-12T04:17:12;4.60;;;1.60;;
22040;SDS011;11184;52.444;13.578;2022-07-12T04:19:56;4.38;;;1.67;;
22040;SDS011;11184;52.444;13.578;2022-07-12T04:22:41;2.47;;;1.45;;
22040;SDS011;11184;52.444;13.578;2022-07-12T04:25:25;2.40;;;1.50;;
22040;SDS011;11184;52.444;13.578;2022-07-12T04:28:10;2.45;;;1.35;;
22040;SDS011;11184;52.444;13.578;2022-07-12T04:30:54;3.97;;;2.00;;
22040;SDS011;11184;52.444;13.578;2022-07-12T04:33:39;2.13;;;1.35;;
22040;SDS011;11184;52.444;13.578;2022-07-12T04:36:23;5.68;;;1.70;;
22040;SDS011;11184;52.444;13.578;2022-07-12T04:39:08;5.07;;;1.85;;
22040;SDS011;11184;52.444;13.578;2022-07-12T04:41:53;4.32;;;1.60;;
22040;SDS011;11184;52.444;13.578;2022-07-12T04:44:38;6.22;;;1.90;;
22040;SDS011;11184;52.444;13.578;2022-07-12T04:47:23;13.68;;;3.08;;
22040;SDS011;11184;52.444;13.578;2022-07-12T04:50:07;4.60;;;1.40;;
22040;SDS011;11184;52.444;13.578;2022-07-12T04:52:53;2.60;;;1.17;;
22040;SDS011;11184;52.444;13.578;2022-07-12T04:55:37;4.28;;;2.22;;
22040;SDS011;11184;52.444;13.578;2022-07-12T04:58:22;3.97;;;2.33;;
22040;SDS011;11184;52.444;13.578;2022-07-12T05:01:07;3.83;;;2.08;;
22040;SDS011;11184;52.444;13.578;2022-07-12T05:03:52;1.45;;;0.75;;
22040;SDS011;11184;52.444;13.578;2022-07-12T05:06:36;6.20;;;1.70;;
22040;SDS011;11184;52.444;13.578;2022-07-12T05:09:21;3.95;;;1.30;;
22040;SDS011;11184;52.444;13.578;2022-07-12T05:12:06;2.22;;;0.80;;
22040;SDS011;11184;52.444;13.578;2022-07-12T05:14:51;7.90;;;0.98;;
22040;SDS011;11184;52.444;13.578;2022-07-12T05:17:36;2.97;;;0.98;;
22040;SDS011;11184;52.444;13.578;2022-07-12T05:20:21;2.90;;;0.90;;
22040;SDS011;11184;52.444;13.578;2022-07-12T05:23:05;1.40;;;0.80;;
22040;SDS011;11184;52.444;13.578;2022-07-12T05:25:50;2.70;;;0.60;;
22040;SDS011;11184;52.444;13.578;2022-07-12T05:28:34;1.52;;;0.70;;
22040;SDS011;11184;52.444;13.578;2022-07-12T05:31:19;1.05;;;0.73;;
22040;SDS011;11184;52.444;13.578;2022-07-12T05:34:04;5.43;;;0.82;;
22040;SDS011;11184;52.444;13.578;2022-07-12T05:36:48;2.35;;;0.68;;
22040;SDS011;11184;52.444;13.578;2022-07-12T05:39:33;1.52;;;0.63;;
22040;SDS011;11184;52.444;13.578;2022-07-12T05:42:17;1.65;;;0.50;;
22040;SDS011;11184;52.444;13.578;2022-07-12T05:45:03;1.65;;;0.60;;
22040;SDS011;11184;52.444;13.578;2022-07-12T05:47:47;1.50;;;0.63;;
22040;SDS011;11184;52.444;13.578;2022-07-12T05:50:32;1.42;;;0.70;;
22040;SDS011;11184;52.444;13.578;2022-07-12T05:53:17;5.68;;;0.73;;
22040;SDS011;11184;52.444;13.578;2022-07-12T05:56:07;3.17;;;0.50;;
22040;SDS011;11184;52.444;13.578;2022-07-12T05:58:52;4.50;;;0.63;;
22040;SDS011;11184;52.444;13.578;2022-07-12T06:01:37;6.18;;;0.88;;
22040;SDS011;11184;52.444;13.578;2022-07-12T06:04:22;1.25;;;0.32;;
22040;SDS011;11184;52.444;13.578;2022-07-12T06:07:06;1.73;;;1.00;;
22040;SDS011;11184;52.444;13.578;2022-07-12T06:09:51;3.92;;;0.90;;
22040;SDS011;11184;52.444;13.578;2022-07-12T06:12:36;4.05;;;1.02;;
22040;SDS011;11184;52.444;13.578;2022-07-12T06:15:21;4.50;;;0.30;;
22040;SDS011;11184;52.444;13.578;2022-07-12T06:18:06;1.65;;;0.60;;
22040;SDS011;11184;52.444;13.578;2022-07-12T06:20:50;5.03;;;0.55;;
22040;SDS011;11184;52.444;13.578;2022-07-12T06:23:35;0.60;;;0.30;;
22040;SDS011;11184;52.444;13.578;2022-07-12T06:26:20;1.63;;;0.50;;
22040;SDS011;11184;52.444;13.578;2022-07-12T06:29:05;3.50;;;0.98;;
22040;SDS011;11184;52.444;13.578;2022-07-12T06:31:49;6.00;;;1.08;;
22040;SDS011;11184;52.444;13.578;2022-07-12T06:34:36;2.05;;;0.60;;
22040;SDS011;11184;52.444;13.578;2022-07-12T06:37:21;7.32;;;0.85;;
22040;SDS011;11184;52.444;13.578;2022-07-12T06:40:06;0.68;;;0.30;;
22040;SDS011;11184;52.444;13.578;2022-07-12T06:42:51;4.25;;;0.60;;
22040;SDS011;11184;52.444;13.578;2022-07-12T06:45:36;1.17;;;0.43;;
22040;SDS011;11184;52.444;13.578;2022-07-12T06:48:21;2.40;;;0.40;;
22040;SDS011;11184;52.444;13.578;2022-07-12T06:51:05;2.58;;;0.40;;
22040;SDS011;11184;52.444;13.578;2022-07-12T06:53:50;2.80;;;0.60;;
22040;SDS011;11184;52.444;13.578;2022-07-12T06:56:35;2.42;;;0.77;;
22040;SDS011;11184;52.444;13.578;2022-07-12T06:59:19;3.40;;;1.70;;
22040;SDS011;11184;52.444;13.578;2022-07-12T07:02:04;1.10;;;0.50;;
22040;SDS011;11184;52.444;13.578;2022-07-12T07:04:49;2.50;;;0.90;;
22040;SDS011;11184;52.444;13.578;2022-07-12T07:07:33;1.48;;;0.57;;
22040;SDS011;11184;52.444;13.578;2022-07-12T07:10:18;6.53;;;0.75;;
22040;SDS011;11184;52.444;13.578;2022-07-12T07:13:03;2.75;;;1.48;;
22040;SDS011;11184;52.444;13.578;2022-07-12T07:15:47;5.10;;;2.15;;
22040;SDS011;11184;52.444;13.578;2022-07-12T07:18:32;5.30;;;1.73;;
22040;SDS011;11184;52.444;13.578;2022-07-12T07:21:17;3.72;;;0.73;;
22040;SDS011;11184;52.444;13.578;2022-07-12T07:24:01;4.97;;;0.98;;
22040;SDS011;11184;52.444;13.578;2022-07-12T07:26:47;9.15;;;2.30;;
22040;SDS011;11184;52.444;13.578;2022-07-12T07:29:32;2.25;;;0.63;;
22040;SDS011;11184;52.444;13.578;2022-07-12T07:32:36;2.38;;;0.45;;
22040;SDS011;11184;52.444;13.578;2022-07-12T07:35:20;8.23;;;1.17;;
22040;SDS011;11184;52.444;13.578;2022-07-12T07:38:05;1.95;;;0.60;;
22040;SDS011;11184;52.444;13.578;2022-07-12T07:40:50;6.15;;;1.20;;
22040;SDS011;11184;52.444;13.578;2022-07-12T07:43:34;1.50;;;0.70;;
22040;SDS011;11184;52.444;13.578;2022-07-12T07:46:19;0.68;;;0.50;;
22040;SDS011;11184;52.444;13.578;2022-07-12T07:49:04;1.05;;;0.55;;
22040;SDS011;11184;52.444;13.578;2022-07-12T07:51:49;3.30;;;0.95;;
22040;SDS011;11184;52.444;13.578;2022-07-12T07:54:34;3.53;;;1.05;;
22040;SDS011;11184;52.444;13.578;2022-07-12T07:57:18;3.10;;;1.10;;
22040;SDS011;11184;52.444;13.578;2022-07-12T08:00:03;5.97;;;1.25;;
22040;SDS011;11184;52.444;13.578;2022-07-12T08:02:48;1.48;;;0.93;;
22040;SDS011;11184;52.444;13.578;2022-07-12T08:05:32;3.28;;;1.15;;
22040;SDS011;11184;52.444;13.578;2022-07-12T08:08:17;1.60;;;0.60;;
22040;SDS011;11184;52.444;13.578;2022-07-12T08:11:02;4.28;;;0.50;;
22040;SDS011;11184;52.444;13.578;2022-07-12T08:13:47;1.02;;;0.52;;
22040;SDS011;11184;52.444;13.578;2022-07-12T08:16:32;1.13;;;0.55;;
22040;SDS011;11184;52.444;13.578;2022-07-12T08:19:18;1.30;;;0.60;;
22040;SDS011;11184;52.444;13.578;2022-07-12T08:22:02;1.73;;;0.50;;
22040;SDS011;11184;52.444;13.578;2022-07-12T08:24:47;1.75;;;0.50;;
22040;SDS011;11184;52.444;13.578;2022-07-12T08:27:31;2.92;;;0.57;;
22040;SDS011;11184;52.444;13.578;2022-07-12T08:30:16;1.67;;;0.30;;
22040;SDS011;11184;52.444;13.578;2022-07-12T08:33:00;4.78;;;1.15;;
22040;SDS011;11184;52.444;13.578;2022-07-12T08:35:45;4.25;;;0.70;;
22040;SDS011;11184;52.444;13.578;2022-07-12T08:38:30;3.22;;;0.80;;
22040;SDS011;11184;52.444;13.578;2022-07-12T08:41:15;2.65;;;0.50;;
22040;SDS011;11184;52.444;13.578;2022-07-12T08:44:00;1.20;;;0.73;;
22040;SDS011;11184;52.444;13.578;2022-07-12T08:46:45;2.22;;;0.50;;
22040;SDS011;11184;52.444;13.578;2022-07-12T08:49:30;4.70;;;0.80;;
22040;SDS011;11184;52.444;13.578;2022-07-12T08:52:25;1.38;;;0.60;;
22040;SDS011;11184;52.444;13.578;2022-07-12T08:58:04;1.58;;;0.52;;
22040;SDS011;11184;52.444;13.578;2022-07-12T09:00:50;1.75;;;0.50;;
22040;SDS011;11184;52.444;13.578;2022-07-12T09:03:34;2.05;;;0.60;;
22040;SDS011;11184;52.444;13.578;2022-07-12T09:06:19;1.23;;;0.60;;
22040;SDS011;11184;52.444;13.578;2022-07-12T09:09:06;1.38;;;0.68;;
22040;SDS011;11184;52.444;13.578;2022-07-12T09:11:52;3.38;;;0.43;;
22040;SDS011;11184;52.444;13.578;2022-07-12T09:14:36;1.63;;;0.30;;
22040;SDS011;11184;52.444;13.578;2022-07-12T09:17:21;1.73;;;0.60;;
22040;SDS011;11184;52.444;13.578;2022-07-12T09:20:08;0.85;;;0.40;;
22040;SDS011;11184;52.444;13.578;2022-07-12T09:22:55;1.27;;;0.43;;
22040;SDS011;11184;52.444;13.578;2022-07-12T09:25:43;2.83;;;0.40;;
22040;SDS011;11184;52.444;13.578;2022-07-12T09:28:28;3.30;;;0.70;;
22040;SDS011;11184;52.444;13.578;2022-07-12T09:31:12;4.03;;;0.63;;
22040;SDS011;11184;52.444;13.578;2022-07-12T09:34:01;3.20;;;0.43;;
22040;SDS011;11184;52.444;13.578;2022-07-12T09:37:04;1.10;;;0.50;;
22040;SDS011;11184;52.444;13.578;2022-07-12T09:39:49;4.45;;;1.02;;
22040;SDS011;11184;52.444;13.578;2022-07-12T09:42:35;2.28;;;0.45;;
22040;SDS011;11184;52.444;13.578;2022-07-12T09:45:21;5.50;;;0.98;;
22040;SDS011;11184;52.444;13.578;2022-07-12T09:48:05;6.55;;;0.60;;
22040;SDS011;11184;52.444;13.578;2022-07-12T09:50:52;3.63;;;0.57;;
22040;SDS011;11184;52.444;13.578;2022-07-12T09:56:27;1.60;;;0.43;;
22040;SDS011;11184;52.444;13.578;2022-07-12T09:59:13;10.23;;;1.55;;
22040;SDS011;11184;52.444;13.578;2022-07-12T10:01:58;2.38;;;0.73;;
22040;SDS011;11184;52.444;13.578;2022-07-12T10:04:47;3.60;;;1.50;;
22040;SDS011;11184;52.444;13.578;2022-07-12T10:07:32;1.83;;;0.70;;
22040;SDS011;11184;52.444;13.578;2022-07-12T10:10:17;2.90;;;0.38;;
22040;SDS011;11184;52.444;13.578;2022-07-12T10:13:02;3.10;;;0.68;;
22040;SDS011;11184;52.444;13.578;2022-07-12T10:15:47;0.60;;;0.30;;
22040;SDS011;11184;52.444;13.578;2022-07-12T10:18:33;2.58;;;0.73;;
22040;SDS011;11184;52.444;13.578;2022-07-12T10:21:18;1.65;;;0.40;;
22040;SDS011;11184;52.444;13.578;2022-07-12T10:24:06;1.52;;;0.50;;
22040;SDS011;11184;52.444;13.578;2022-07-12T10:30:11;1.20;;;0.30;;
22040;SDS011;11184;52.444;13.578;2022-07-12T10:32:58;0.70;;;0.35;;
22040;SDS011;11184;52.444;13.578;2022-07-12T10:36:02;0.43;;;0.30;;
22040;SDS011;11184;52.444;13.578;2022-07-12T10:39:10;1.38;;;0.80;;
22040;SDS011;11184;52.444;13.578;2022-07-12T10:44:51;2.92;;;0.50;;
22040;SDS011;11184;52.444;13.578;2022-07-12T10:53:34;0.63;;;0.30;;
22040;SDS011;11184;52.444;13.578;2022-07-12T10:56:23;1.73;;;0.60;;
22040;SDS011;11184;52.444;13.578;2022-07-12T10:59:15;0.68;;;0.35;;
22040;SDS011;11184;52.444;13.578;2022-07-12T11:02:00;2.78;;;0.60;;
22040;SDS011;11184;52.444;13.578;2022-07-12T11:04:46;1.08;;;0.60;;
22040;SDS011;11184;52.444;13.578;2022-07-12T11:07:31;2.08;;;0.30;;
22040;SDS011;11184;52.444;13.578;2022-07-12T11:10:15;3.10;;;0.47;;
22040;SDS011;11184;52.444;13.578;2022-07-12T11:13:00;2.67;;;1.13;;
22040;SDS011;11184;52.444;13.578;2022-07-12T11:15:55;0.93;;;0.50;;
22040;SDS011;11184;52.444;13.578;2022-07-12T11:18:40;0.88;;;0.30;;
22040;SDS011;11184;52.444;13.578;2022-07-12T11:21:25;1.67;;;0.38;;
22040;SDS011;11184;52.444;13.578;2022-07-12T11:24:16;1.95;;;0.80;;
22040;SDS011;11184;52.444;13.578;2022-07-12T11:27:01;1.42;;;0.45;;
22040;SDS011;11184;52.444;13.578;2022-07-12T11:29:57;1.08;;;0.28;;
22040;SDS011;11184;52.444;13.578;2022-07-12T11:32:42;0.98;;;0.40;;
22040;SDS011;11184;52.444;13.578;2022-07-12T11:35:27;1.15;;;0.40;;
22040;SDS011;11184;52.444;13.578;2022-07-12T11:38:12;3.28;;;0.50;;
22040;SDS011;11184;52.444;13.578;2022-07-12T11:41:00;1.70;;;0.40;;
22040;SDS011;11184;52.444;13.578;2022-07-12T11:43:45;1.88;;;0.50;;
22040;SDS011;11184;52.444;13.578;2022-07-12T11:46:30;4.00;;;0.40;;
22040;SDS011;11184;52.444;13.578;2022-07-12T11:49:15;1.95;;;0.70;;
22040;SDS011;11184;52.444;13.578;2022-07-12T11:51:59;1.23;;;0.50;;
22040;SDS011;11184;52.444;13.578;2022-07-12T11:54:44;0.90;;;0.50;;
22040;SDS011;11184;52.444;13.578;2022-07-12T11:57:29;1.17;;;0.50;;
22040;SDS011;11184;52.444;13.578;2022-07-12T12:00:22;1.27;;;0.50;;
22040;SDS011;11184;52.444;13.578;2022-07-12T12:03:07;1.38;;;0.65;;
22040;SDS011;11184;52.444;13.578;2022-07-12T12:05:52;1.95;;;0.60;;
22040;SDS011;11184;52.444;13.578;2022-07-12T12:08:37;2.28;;;0.43;;
22040;SDS011;11184;52.444;13.578;2022-07-12T12:11:28;1.33;;;0.32;;
22040;SDS011;11184;52.444;13.578;2022-07-12T12:14:13;2.05;;;0.45;;
22040;SDS011;11184;52.444;13.578;2022-07-12T12:16:57;2.08;;;0.88;;
22040;SDS011;11184;52.444;13.578;2022-07-12T12:19:43;0.57;;;0.40;;
22040;SDS011;11184;52.444;13.578;2022-07-12T12:22:28;3.17;;;0.50;;
22040;SDS011;11184;52.444;13.578;2022-07-12T12:25:14;0.65;;;0.47;;
22040;SDS011;11184;52.444;13.578;2022-07-12T12:27:59;2.72;;;0.55;;
22040;SDS011;11184;52.444;13.578;2022-07-12T12:30:51;1.05;;;0.50;;
22040;SDS011;11184;52.444;13.578;2022-07-12T12:33:55;0.90;;;0.45;;
22040;SDS011;11184;52.444;13.578;2022-07-12T12:36:42;0.70;;;0.22;;
22040;SDS011;11184;52.444;13.578;2022-07-12T12:39:30;1.52;;;0.65;;
22040;SDS011;11184;52.444;13.578;2022-07-12T12:42:23;1.77;;;0.60;;
22040;SDS011;11184;52.444;13.578;2022-07-12T12:45:16;3.28;;;0.57;;
22040;SDS011;11184;52.444;13.578;2022-07-12T12:48:02;0.73;;;0.30;;
22040;SDS011;11184;52.444;13.578;2022-07-12T12:50:47;1.20;;;0.52;;
22040;SDS011;11184;52.444;13.578;2022-07-12T12:53:33;2.65;;;0.43;;
22040;SDS011;11184;52.444;13.578;2022-07-12T12:56:18;1.10;;;0.40;;
22040;SDS011;11184;52.444;13.578;2022-07-12T12:59:02;2.05;;;0.70;;
22040;SDS011;11184;52.444;13.578;2022-07-12T13:01:47;0.88;;;0.30;;
22040;SDS011;11184;52.444;13.578;2022-07-12T13:04:33;0.85;;;0.38;;
22040;SDS011;11184;52.444;13.578;2022-07-12T13:07:17;1.75;;;0.30;;
22040;SDS011;11184;52.444;13.578;2022-07-12T13:10:02;0.68;;;0.43;;
22040;SDS011;11184;52.444;13.578;2022-07-12T13:12:47;0.43;;;0.30;;
22040;SDS011;11184;52.444;13.578;2022-07-12T13:15:32;3.47;;;0.57;;
22040;SDS011;11184;52.444;13.578;2022-07-12T13:18:17;1.73;;;0.47;;
22040;SDS011;11184;52.444;13.578;2022-07-12T13:21:01;0.50;;;0.30;;
22040;SDS011;11184;52.444;13.578;2022-07-12T13:23:46;0.85;;;0.38;;
22040;SDS011;11184;52.444;13.578;2022-07-12T13:26:30;0.63;;;0.38;;
22040;SDS011;11184;52.444;13.578;2022-07-12T13:29:15;1.27;;;0.30;;
22040;SDS011;11184;52.444;13.578;2022-07-12T13:32:00;0.80;;;0.38;;
22040;SDS011;11184;52.444;13.578;2022-07-12T13:34:48;0.60;;;0.30;;
22040;SDS011;11184;52.444;13.578;2022-07-12T13:37:33;1.58;;;0.60;;
22040;SDS011;11184;52.444;13.578;2022-07-12T13:40:18;1.73;;;0.73;;
22040;SDS011;11184;52.444;13.578;2022-07-12T13:43:06;2.83;;;0.93;;
22040;SDS011;11184;52.444;13.578;2022-07-12T13:45:50;0.80;;;0.50;;
22040;SDS011;11184;52.444;13.578;2022-07-12T13:48:35;1.85;;;0.40;;
22040;SDS011;11184;52.444;13.578;2022-07-12T13:51:21;2.97;;;0.60;;
22040;SDS011;11184;52.444;13.578;2022-07-12T13:54:05;1.48;;;0.38;;
22040;SDS011;11184;52.444;13.578;2022-07-12T13:56:51;1.45;;;0.60;;
22040;SDS011;11184;52.444;13.578;2022-07-12T13:59:36;1.25;;;0.40;;
22040;SDS011;11184;52.444;13.578;2022-07-12T14:02:20;3.88;;;0.60;;
22040;SDS011;11184;52.444;13.578;2022-07-12T14:05:07;0.93;;;0.50;;
22040;SDS011;11184;52.444;13.578;2022-07-12T14:07:52;0.98;;;0.52;;
22040;SDS011;11184;52.444;13.578;2022-07-12T14:10:36;1.13;;;0.35;;
22040;SDS011;11184;52.444;13.578;2022-07-12T14:13:22;2.08;;;0.47;;
22040;SDS011;11184;52.444;13.578;2022-07-12T14:16:06;1.92;;;0.30;;
22040;SDS011;11184;52.444;13.578;2022-07-12T14:18:51;1.65;;;0.40;;
22040;SDS011;11184;52.444;13.578;2022-07-12T14:21:36;1.13;;;0.35;;
22040;SDS011;11184;52.444;13.578;2022-07-12T14:24:20;1.27;;;0.43;;
22040;SDS011;11184;52.444;13.578;2022-07-12T14:27:05;3.53;;;0.65;;
22040;SDS011;11184;52.444;13.578;2022-07-12T14:29:50;2.67;;;0.65;;
22040;SDS011;11184;52.444;13.578;2022-07-12T14:32:34;0.85;;;0.45;;
22040;SDS011;11184;52.444;13.578;2022-07-12T14:35:19;4.05;;;0.52;;
22040;SDS011;11184;52.444;13.578;2022-07-12T14:38:04;1.05;;;0.30;;
22040;SDS011;11184;52.444;13.578;2022-07-12T14:40:49;4.20;;;0.60;;
22040;SDS011;11184;52.444;13.578;2022-07-12T14:43:34;0.95;;;0.60;;
22040;SDS011;11184;52.444;13.578;2022-07-12T14:46:18;1.00;;;0.30;;
22040;SDS011;11184;52.444;13.578;2022-07-12T14:49:03;3.70;;;0.65;;
22040;SDS011;11184;52.444;13.578;2022-07-12T14:51:47;0.95;;;0.38;;
22040;SDS011;11184;52.444;13.578;2022-07-12T14:54:32;2.22;;;0.70;;
22040;SDS011;11184;52.444;13.578;2022-07-12T14:57:17;2.35;;;0.73;;
22040;SDS011;11184;52.444;13.578;2022-07-12T15:00:02;0.80;;;0.50;;
22040;SDS011;11184;52.444;13.578;2022-07-12T15:02:48;0.85;;;0.50;;
22040;SDS011;11184;52.444;13.578;2022-07-12T15:05:33;1.00;;;0.28;;
22040;SDS011;11184;52.444;13.578;2022-07-12T15:08:17;1.10;;;0.50;;
22040;SDS011;11184;52.444;13.578;2022-07-12T15:11:02;2.80;;;0.50;;
22040;SDS011;11184;52.444;13.578;2022-07-12T15:13:47;0.60;;;0.40;;
22040;SDS011;11184;52.444;13.578;2022-07-12T15:16:32;0.68;;;0.30;;
22040;SDS011;11184;52.444;13.578;2022-07-12T15:19:16;0.90;;;0.40;;
22040;SDS011;11184;52.444;13.578;2022-07-12T15:22:01;1.55;;;0.32;;
22040;SDS011;11184;52.444;13.578;2022-07-12T15:24:46;0.85;;;0.38;;
22040;SDS011;11184;52.444;13.578;2022-07-12T15:27:30;0.65;;;0.30;;
22040;SDS011;11184;52.444;13.578;2022-07-12T15:30:15;0.52;;;0.28;;
22040;SDS011;11184;52.444;13.578;2022-07-12T15:32:59;0.90;;;0.47;;
22040;SDS011;11184;52.444;13.578;2022-07-12T15:35:47;1.08;;;0.40;;
22040;SDS011;11184;52.444;13.578;2022-07-12T15:38:32;0.80;;;0.40;;
22040;SDS011;11184;52.444;13.578;2022-07-12T15:41:18;0.35;;;0.30;;
22040;SDS011;11184;52.444;13.578;2022-07-12T15:44:02;0.32;;;0.22;;
22040;SDS011;11184;52.444;13.578;2022-07-12T15:46:47;1.17;;;0.52;;
22040;SDS011;11184;52.444;13.578;2022-07-12T15:49:32;1.23;;;0.50;;
22040;SDS011;11184;52.444;13.578;2022-07-12T15:52:17;1.02;;;0.40;;
22040;SDS011;11184;52.444;13.578;2022-07-12T15:55:21;0.75;;;0.40;;
22040;SDS011;11184;52.444;13.578;2022-07-12T15:58:05;0.68;;;0.22;;
22040;SDS011;11184;52.444;13.578;2022-07-12T16:00:53;3.22;;;0.50;;
22040;SDS011;11184;52.444;13.578;2022-07-12T16:03:38;0.82;;;0.40;;
22040;SDS011;11184;52.444;13.578;2022-07-12T16:06:24;0.77;;;0.30;;
22040;SDS011;11184;52.444;13.578;2022-07-12T16:09:08;0.68;;;0.40;;
22040;SDS011;11184;52.444;13.578;2022-07-12T16:11:54;0.95;;;0.60;;
22040;SDS011;11184;52.444;13.578;2022-07-12T16:14:39;1.42;;;0.50;;
22040;SDS011;11184;52.444;13.578;2022-07-12T16:17:24;1.95;;;0.50;;
22040;SDS011;11184;52.444;13.578;2022-07-12T16:20:09;5.00;;;0.50;;
22040;SDS011;11184;52.444;13.578;2022-07-12T16:22:54;0.68;;;0.32;;
22040;SDS011;11184;52.444;13.578;2022-07-12T16:25:38;1.80;;;0.70;;
22040;SDS011;11184;52.444;13.578;2022-07-12T16:28:23;1.00;;;0.45;;
22040;SDS011;11184;52.444;13.578;2022-07-12T16:31:08;1.48;;;0.50;;
22040;SDS011;11184;52.444;13.578;2022-07-12T16:33:53;0.45;;;0.30;;
22040;SDS011;11184;52.444;13.578;2022-07-12T16:36:38;1.27;;;0.40;;
22040;SDS011;11184;52.444;13.578;2022-07-12T16:39:22;1.20;;;0.40;;